Time;durP1;ratioP1;P1;durP2;ratioP2;P2;SDS_P1;SDS_P2;PMS_P1;PMS_P2;Temp;Humidity;BMP_temperature;BMP_pressure;BME280_temperature;BME280_humidity;BME280_pressure;Samples;Min_cycle;Max_cycle;Signal;HPM_P1;HPM_P2
2023/02/21 02:15:05;;;;;;;1.90;1.27;;;;;;;;;;5069613;28;20031;-57
2023/02/21 02:17:49;;;;;;;4.85;1.63;;;;;;;;;;5068521;28;20020;-57
2023/02/21 02:20:23;;;;;;;2.40;1.20;;;;;;;;;;5066812;28;20035;-58
2023/02/21 02:23:02;;;;;;;3.15;1.55;;;;;;;;;;5068499;28;20032;-57
2023/02/21 02:25:39;;;;;;;3.92;1.35;;;;;;;;;;5068770;28;20102;-58
2023/02/21 02:28:42;;;;;;;3.50;1.35;;;;;;;;;;5065201;28;20086;-57
2023/02/21 02:31:10;;;;;;;2.70;1.50;;;;;;;;;;5040790;28;20505;-57
2023/02/21 02:33:41;;;;;;;3.17;1.50;;;;;;;;;;5067178;28;20043;-58
2023/02/21 02:36:18;;;;;;;3.22;1.38;;;;;;;;;;5066899;28;20028;-57
2023/02/21 02:39:25;;;;;;;8.70;1.70;;;;;;;;;;5066317;28;20383;-57
2023/02/21 02:42:29;;;;;;;2.03;1.63;;;;;;;;;;5064141;28;20440;-57
2023/02/21 02:45:29;;;;;;;2.88;1.40;;;;;;;;;;5061046;28;20032;-58
2023/02/21 02:47:58;;;;;;;;;;;;;;;;;;5064179;28;20041;-57
2023/02/21 02:50:26;;;;;;;4.15;1.40;;;;;;;;;;5065196;28;20073;-57
2023/02/21 02:52:53;;;;;;;3.58;1.50;;;;;;;;;;5069765;28;20438;-57
2023/02/21 02:55:30;;;;;;;2.97;1.30;;;;;;;;;;5068244;28;20078;-57
2023/02/21 02:57:56;;;;;;;1.80;1.40;;;;;;;;;;5067794;28;20398;-57
2023/02/21 03:00:22;;;;;;;11.27;4.47;;;;;;;;;;5067828;28;20024;-57
2023/02/21 03:02:56;;;;;;;5.07;2.28;;;;;;;;;;5069577;28;20501;-57
2023/02/21 03:05:56;;;;;;;3.03;1.90;;;;;;;;;;5067281;28;20456;-57
2023/02/21 03:08:31;;;;;;;3.40;1.42;;;;;;;;;;5065257;28;20027;-58
2023/02/21 03:11:15;;;;;;;2.40;1.42;;;;;;;;;;5064083;28;20077;-58
2023/02/21 03:13:56;;;;;;;3.08;1.70;;;;;;;;;;5068976;28;20043;-58
2023/02/21 03:16:25;;;;;;;4.30;1.70;;;;;;;;;;5066523;28;20024;-57
2023/02/21 03:19:06;;;;;;;6.50;1.42;;;;;;;;;;5067777;28;20024;-57
2023/02/21 03:21:38;;;;;;;3.33;1.40;;;;;;;;;;5068821;28;20074;-57
2023/02/21 03:24:04;;;;;;;3.67;1.42;;;;;;;;;;5064658;28;20031;-58
2023/02/21 03:26:34;;;;;;;2.83;1.50;;;;;;;;;;5068004;28;20028;-57
2023/02/21 03:29:01;;;;;;;2.03;1.40;;;;;;;;;;5066979;28;20074;-58
2023/02/21 03:31:35;;;;;;;2.75;1.70;;;;;;;;;;5068293;28;20028;-57
2023/02/21 03:34:00;;;;;;;2.05;1.30;;;;;;;;;;5063942;28;20112;-58
2023/02/21 03:36:26;;;;;;;1.80;1.55;;;;;;;;;;5066769;28;20107;-57
2023/02/21 03:38:52;;;;;;;2.08;1.30;;;;;;;;;;5068317;28;20032;-57
2023/02/21 03:41:17;;;;;;;2.33;1.30;;;;;;;;;;5062735;28;20028;-57
2023/02/21 03:43:43;;;;;;;2.47;1.80;;;;;;;;;;5066603;28;20032;-58
2023/02/21 03:46:08;;;;;;;4.20;2.67;;;;;;;;;;5068318;28;20028;-57
2023/02/21 03:48:33;;;;;;;2.22;2.00;;;;;;;;;;5066318;28;20108;-58
2023/02/21 03:50:59;;;;;;;8.63;3.00;;;;;;;;;;5063358;28;20036;-58
2023/02/21 03:53:25;;;;;;;3.50;1.67;;;;;;;;;;5060757;28;20167;-58
2023/02/21 03:55:50;;;;;;;4.03;1.50;;;;;;;;;;5064537;28;20036;-58
2023/02/21 03:58:15;;;;;;;2.70;1.67;;;;;;;;;;5066452;28;20028;-58
2023/02/21 04:00:41;;;;;;;4.15;1.75;;;;;;;;;;5071000;28;20028;-58
2023/02/21 04:03:06;;;;;;;4.10;2.20;;;;;;;;;;5073842;28;20459;-58
2023/02/21 04:05:32;;;;;;;3.80;2.00;;;;;;;;;;5066176;28;20025;-57
2023/02/21 04:07:57;;;;;;;4.78;2.00;;;;;;;;;;5066996;28;20070;-58
2023/02/21 04:10:22;;;;;;;6.90;2.45;;;;;;;;;;5072020;28;20070;-58
2023/02/21 04:12:48;;;;;;;3.70;2.05;;;;;;;;;;5072134;28;20127;-57
2023/02/21 04:15:14;;;;;;;4.57;2.00;;;;;;;;;;5072558;28;20047;-57
2023/02/21 04:17:39;;;;;;;3.45;1.73;;;;;;;;;;5070864;28;20038;-57
2023/02/21 04:20:05;;;;;;;3.88;1.73;;;;;;;;;;5072005;28;20038;-57
2023/02/21 04:22:31;;;;;;;3.58;2.22;;;;;;;;;;5071740;28;20074;-56
2023/02/21 04:24:56;;;;;;;4.43;1.90;;;;;;;;;;5072138;28;20431;-59
2023/02/21 04:27:21;;;;;;;3.15;1.85;;;;;;;;;;5071182;28;20032;-58
2023/02/21 04:29:47;;;;;;;2.47;2.00;;;;;;;;;;5070480;28;20429;-59
2023/02/21 04:32:12;;;;;;;2.80;2.03;;;;;;;;;;5068979;28;20032;-58
2023/02/21 04:34:38;;;;;;;4.85;2.53;;;;;;;;;;5070085;28;20394;-58
2023/02/21 04:37:03;;;;;;;5.72;2.53;;;;;;;;;;5070421;28;20024;-59
2023/02/21 04:39:29;;;;;;;5.90;2.38;;;;;;;;;;5071241;28;20051;-57
2023/02/21 04:41:54;;;;;;;3.25;1.70;;;;;;;;;;5071711;28;20038;-58
2023/02/21 04:44:19;;;;;;;5.07;1.92;;;;;;;;;;5071150;28;20044;-58
2023/02/21 04:46:45;;;;;;;2.75;1.48;;;;;;;;;;5068815;28;20036;-58
2023/02/21 04:49:14;;;;;;;3.85;1.70;;;;;;;;;;5067013;28;20056;-58
2023/02/21 04:51:40;;;;;;;2.00;1.70;;;;;;;;;;5067811;28;20564;-58
2023/02/21 04:54:06;;;;;;;3.05;1.67;;;;;;;;;;5071308;28;20120;-58
2023/02/21 04:56:32;;;;;;;3.83;1.50;;;;;;;;;;5072060;28;20030;-58
2023/02/21 04:58:57;;;;;;;1.52;1.30;;;;;;;;;;5065403;28;20095;-57
2023/02/21 05:01:27;;;;;;;2.28;1.50;;;;;;;;;;5074018;28;20020;-58
2023/02/21 05:03:52;;;;;;;6.90;3.25;;;;;;;;;;5065680;28;20616;-58
2023/02/21 05:06:24;;;;;;;3.08;2.00;;;;;;;;;;5069905;28;20119;-58
2023/02/21 05:08:50;;;;;;;2.25;1.90;;;;;;;;;;5069912;28;20559;-58
2023/02/21 05:11:17;;;;;;;2.25;1.70;;;;;;;;;;5070959;28;20032;-57
2023/02/21 05:13:43;;;;;;;2.40;1.98;;;;;;;;;;5069781;28;20601;-57
2023/02/21 05:16:08;;;;;;;3.08;2.10;;;;;;;;;;5071266;28;20028;-58
2023/02/21 05:18:36;;;;;;;3.25;1.88;;;;;;;;;;5069878;28;20093;-57
2023/02/21 05:21:02;;;;;;;5.53;2.67;;;;;;;;;;5069545;28;20036;-57
2023/02/21 05:23:33;;;;;;;4.05;2.50;;;;;;;;;;5068145;28;20020;-57
2023/02/21 05:26:04;;;;;;;4.43;2.30;;;;;;;;;;5070699;28;20040;-56
2023/02/21 05:28:29;;;;;;;5.95;1.90;;;;;;;;;;5068237;28;20028;-54
2023/02/21 05:30:55;;;;;;;5.07;2.70;;;;;;;;;;5071333;28;20033;-56
2023/02/21 05:33:21;;;;;;;4.45;2.97;;;;;;;;;;5069196;28;20083;-56
2023/02/21 05:35:47;;;;;;;4.15;2.60;;;;;;;;;;5070101;28;20055;-57
2023/02/21 05:38:13;;;;;;;8.52;2.90;;;;;;;;;;5069244;28;20383;-56
2023/02/21 05:40:38;;;;;;;7.57;2.30;;;;;;;;;;5072932;28;20021;-56
2023/02/21 05:43:04;;;;;;;5.85;3.15;;;;;;;;;;5069690;28;20367;-56
2023/02/21 05:45:29;;;;;;;5.93;3.13;;;;;;;;;;5068124;28;20036;-56
2023/02/21 05:47:59;;;;;;;4.97;2.80;;;;;;;;;;5070483;28;20045;-57
2023/02/21 05:50:25;;;;;;;5.78;2.63;;;;;;;;;;5065358;28;20036;-56
2023/02/21 05:52:50;;;;;;;3.20;2.08;;;;;;;;;;5071032;28;20044;-56
2023/02/21 05:55:15;;;;;;;3.13;2.22;;;;;;;;;;5070706;28;20405;-56
2023/02/21 05:57:41;;;;;;;4.30;1.92;;;;;;;;;;5069766;28;20020;-56
2023/02/21 06:00:12;;;;;;;3.10;2.03;;;;;;;;;;5071493;28;20128;-58
2023/02/21 06:02:37;;;;;;;4.82;2.83;;;;;;;;;;5071446;28;20099;-57
2023/02/21 06:05:03;;;;;;;5.75;2.28;;;;;;;;;;5071150;28;20112;-57
2023/02/21 06:07:28;;;;;;;4.70;2.63;;;;;;;;;;5070022;28;20567;-57
2023/02/21 06:09:54;;;;;;;4.97;2.70;;;;;;;;;;5070897;28;20064;-56
2023/02/21 06:12:19;;;;;;;7.05;3.35;;;;;;;;;;5073709;28;20028;-58
2023/02/21 06:14:44;;;;;;;4.88;2.90;;;;;;;;;;5070846;28;20024;-57
2023/02/21 06:17:10;;;;;;;3.60;2.92;;;;;;;;;;5068573;28;20427;-56
2023/02/21 06:19:35;;;;;;;4.60;3.22;;;;;;;;;;5074954;28;20032;-57
2023/02/21 06:22:00;;;;;;;14.85;6.97;;;;;;;;;;5070503;28;20029;-57
2023/02/21 06:24:26;;;;;;;7.78;3.72;;;;;;;;;;5069481;28;20056;-57
2023/02/21 06:26:51;;;;;;;8.85;4.50;;;;;;;;;;5069401;28;20470;-57
2023/02/21 06:29:17;;;;;;;13.88;3.78;;;;;;;;;;5069968;28;20039;-57
2023/02/21 06:31:42;;;;;;;13.90;6.68;;;;;;;;;;5069359;28;20487;-57
2023/02/21 06:34:07;;;;;;;9.50;4.65;;;;;;;;;;5075730;28;20115;-57
2023/02/21 06:36:34;;;;;;;6.90;3.67;;;;;;;;;;5069847;28;20016;-57
2023/02/21 06:38:59;;;;;;;4.20;3.03;;;;;;;;;;5070337;28;20025;-57
2023/02/21 06:41:28;;;;;;;7.13;2.67;;;;;;;;;;5069424;28;20021;-57
2023/02/21 06:43:54;;;;;;;5.35;3.10;;;;;;;;;;5070922;28;20073;-57
2023/02/21 06:46:23;;;;;;;4.22;2.63;;;;;;;;;;5070082;28;20024;-57
2023/02/21 06:48:49;;;;;;;5.65;2.90;;;;;;;;;;5069916;28;20102;-58
2023/02/21 06:51:15;;;;;;;5.15;2.45;;;;;;;;;;5069344;28;20401;-58
2023/02/21 06:53:41;;;;;;;4.43;3.00;;;;;;;;;;5070119;28;20025;-57
2023/02/21 06:56:07;;;;;;;5.28;3.00;;;;;;;;;;5064951;28;20428;-57
2023/02/21 06:58:33;;;;;;;4.03;2.78;;;;;;;;;;5070531;28;20363;-57
2023/02/21 07:00:59;;;;;;;8.05;2.47;;;;;;;;;;5068086;28;20039;-56
2023/02/21 07:03:24;;;;;;;3.92;2.60;;;;;;;;;;5070002;28;20031;-57
2023/02/21 07:05:50;;;;;;;7.07;2.63;;;;;;;;;;5070078;28;20016;-57
2023/02/21 07:08:15;;;;;;;2.88;1.92;;;;;;;;;;5069745;28;20052;-57
2023/02/21 07:10:41;;;;;;;3.92;2.58;;;;;;;;;;5069133;28;20078;-56
2023/02/21 07:13:06;;;;;;;7.03;2.80;;;;;;;;;;5069709;28;20025;-56
2023/02/21 07:15:32;;;;;;;7.05;2.80;;;;;;;;;;5069987;28;20122;-56
2023/02/21 07:17:57;;;;;;;6.47;2.78;;;;;;;;;;5074656;28;20450;-56
2023/02/21 07:20:23;;;;;;;6.53;3.75;;;;;;;;;;5069473;28;20016;-56
2023/02/21 07:22:49;;;;;;;7.30;3.53;;;;;;;;;;5075291;28;20252;-56
2023/02/21 07:25:16;;;;;;;6.15;3.58;;;;;;;;;;5069669;28;20020;-56
2023/02/21 07:27:42;;;;;;;21.63;10.68;;;;;;;;;;5060909;28;20017;-56
2023/02/21 07:30:10;;;;;;;26.92;13.57;;;;;;;;;;5068136;28;20021;-56
2023/02/21 07:32:35;;;;;;;25.92;14.18;;;;;;;;;;5069418;28;20725;-56
2023/02/21 07:35:00;;;;;;;26.95;14.02;;;;;;;;;;5070146;28;20099;-56
2023/02/21 07:37:26;;;;;;;23.70;13.10;;;;;;;;;;5069396;28;20023;-56
2023/02/21 07:39:52;;;;;;;21.25;12.10;;;;;;;;;;5068016;28;20166;-56
2023/02/21 07:42:17;;;;;;;15.23;9.98;;;;;;;;;;5068930;28;20397;-56
2023/02/21 07:44:43;;;;;;;16.63;10.20;;;;;;;;;;5069955;28;20109;-56
2023/02/21 07:47:09;;;;;;;16.45;9.90;;;;;;;;;;5070781;28;20032;-55
2023/02/21 07:49:38;;;;;;;16.63;9.85;;;;;;;;;;5070026;28;20035;-56
2023/02/21 07:52:04;;;;;;;15.05;9.75;;;;;;;;;;5068943;28;20029;-55
2023/02/21 07:54:29;;;;;;;14.73;9.02;;;;;;;;;;5073438;28;20055;-56
2023/02/21 07:56:55;;;;;;;16.95;8.88;;;;;;;;;;5068927;28;20093;-56
2023/02/21 07:59:20;;;;;;;11.18;8.13;;;;;;;;;;5071752;28;20063;-56
2023/02/21 08:01:46;;;;;;;12.68;7.97;;;;;;;;;;5069425;28;20044;-56
2023/02/21 08:04:12;;;;;;;16.33;8.45;;;;;;;;;;5068457;28;20109;-56
2023/02/21 08:06:38;;;;;;;18.48;7.35;;;;;;;;;;5068201;28;20028;-56
2023/02/21 08:09:04;;;;;;;12.07;7.25;;;;;;;;;;5068364;28;20103;-56
2023/02/21 08:11:29;;;;;;;10.93;6.97;;;;;;;;;;5069958;28;20111;-57
2023/02/21 08:13:54;;;;;;;10.23;6.72;;;;;;;;;;5067963;28;20055;-55
2023/02/21 08:16:20;;;;;;;10.15;4.78;;;;;;;;;;5068212;28;20031;-56
2023/02/21 08:18:52;;;;;;;9.38;5.03;;;;;;;;;;5068597;28;20025;-55
2023/02/21 08:21:17;;;;;;;8.45;5.35;;;;;;;;;;5069159;28;20027;-55
2023/02/21 08:23:42;;;;;;;9.77;5.32;;;;;;;;;;5069191;28;20036;-56
2023/02/21 08:26:08;;;;;;;9.77;4.75;;;;;;;;;;5069440;28;20029;-55
2023/02/21 08:28:33;;;;;;;7.82;4.97;;;;;;;;;;5068336;28;20029;-55
2023/02/21 08:30:59;;;;;;;11.43;5.50;;;;;;;;;;5068890;28;20029;-56
2023/02/21 08:33:24;;;;;;;10.00;5.10;;;;;;;;;;5069509;28;20103;-56
2023/02/21 08:35:50;;;;;;;7.22;5.00;;;;;;;;;;5074166;28;20055;-56
2023/02/21 08:38:17;;;;;;;13.63;5.80;;;;;;;;;;5065524;28;20028;-56
2023/02/21 08:40:44;;;;;;;8.70;4.90;;;;;;;;;;5061774;28;20031;-56
2023/02/21 08:43:09;;;;;;;8.90;5.45;;;;;;;;;;5068867;28;20389;-55
2023/02/21 08:45:35;;;;;;;11.30;5.47;;;;;;;;;;5070368;28;20031;-56
2023/02/21 08:48:00;;;;;;;13.48;7.70;;;;;;;;;;5070639;28;20178;-56
2023/02/21 08:50:27;;;;;;;16.98;7.72;;;;;;;;;;5072332;28;20028;-56
2023/02/21 08:52:53;;;;;;;12.15;6.68;;;;;;;;;;5072424;28;20413;-56
2023/02/21 08:55:19;;;;;;;14.15;6.80;;;;;;;;;;5071799;28;20032;-56
2023/02/21 08:57:47;;;;;;;11.95;6.50;;;;;;;;;;5071737;28;20028;-55
2023/02/21 09:00:15;;;;;;;12.70;6.93;;;;;;;;;;5072917;28;20511;-56
2023/02/21 09:02:41;;;;;;;16.95;8.95;;;;;;;;;;5072267;28;20024;-56
2023/02/21 09:05:18;;;;;;;14.25;6.70;;;;;;;;;;5075284;28;20490;-56
2023/02/21 09:07:47;;;;;;;10.73;6.22;;;;;;;;;;5071153;28;20024;-55
2023/02/21 09:10:12;;;;;;;10.90;5.57;;;;;;;;;;5072024;28;20035;-56
2023/02/21 09:12:38;;;;;;;8.70;4.85;;;;;;;;;;5071934;28;20099;-56
2023/02/21 09:15:05;;;;;;;11.80;5.38;;;;;;;;;;5075872;28;20027;-56
2023/02/21 09:17:33;;;;;;;8.80;4.72;;;;;;;;;;5071905;28;20085;-56
2023/02/21 09:20:07;;;;;;;7.57;5.18;;;;;;;;;;5073962;28;20549;-56
2023/02/21 09:22:33;;;;;;;12.35;5.03;;;;;;;;;;5071094;28;20029;-55
2023/02/21 09:25:00;;;;;;;7.68;4.93;;;;;;;;;;5074238;28;20039;-56
2023/02/21 09:27:35;;;;;;;7.93;5.00;;;;;;;;;;5070588;28;20578;-56
2023/02/21 09:30:23;;;;;;;13.18;5.03;;;;;;;;;;5068372;28;20033;-56
2023/02/21 09:32:49;;;;;;;6.30;4.28;;;;;;;;;;5069743;28;20392;-56
2023/02/21 09:35:15;;;;;;;8.38;4.65;;;;;;;;;;5073675;28;20036;-57
2023/02/21 09:37:43;;;;;;;7.60;4.65;;;;;;;;;;5070519;28;20506;-57
2023/02/21 09:40:38;;;;;;;9.68;5.28;;;;;;;;;;5071490;28;20108;-57
2023/02/21 09:43:32;;;;;;;11.27;6.50;;;;;;;;;;5040831;28;20471;-56
2023/02/21 09:46:01;;;;;;;11.05;6.25;;;;;;;;;;5066874;28;20494;-57
2023/02/21 09:48:28;;;;;;;9.25;5.53;;;;;;;;;;5069821;28;20402;-57
2023/02/21 09:50:59;;;;;;;10.45;5.38;;;;;;;;;;5070917;28;20029;-56
2023/02/21 09:53:31;;;;;;;12.75;6.05;;;;;;;;;;5071022;28;20481;-57
2023/02/21 09:56:02;;;;;;;13.60;6.22;;;;;;;;;;5070606;28;20036;-57
2023/02/21 09:58:29;;;;;;;9.63;5.20;;;;;;;;;;5070263;28;20032;-56
2023/02/21 10:00:59;;;;;;;7.70;4.95;;;;;;;;;;5070764;28;20031;-57
2023/02/21 10:03:44;;;;;;;9.57;5.60;;;;;;;;;;5070906;28;20559;-57
2023/02/21 10:06:26;;;;;;;11.27;5.10;;;;;;;;;;5070560;28;20036;-57
2023/02/21 10:08:57;;;;;;;13.50;6.13;;;;;;;;;;5064287;28;20054;-57
2023/02/21 10:12:00;;;;;;;10.15;4.88;;;;;;;;;;5075607;28;20032;-57
2023/02/21 10:14:42;;;;;;;10.50;5.03;;;;;;;;;;5068649;28;20136;-57
2023/02/21 10:17:35;;;;;;;9.32;5.00;;;;;;;;;;5070130;28;20028;-57
2023/02/21 10:20:12;;;;;;;9.20;5.03;;;;;;;;;;5069516;28;20082;-58
2023/02/21 10:22:41;;;;;;;10.52;5.75;;;;;;;;;;5069969;28;20036;-58
2023/02/21 10:25:24;;;;;;;11.48;6.50;;;;;;;;;;5069798;28;20081;-58
2023/02/21 10:27:52;;;;;;;13.63;6.20;;;;;;;;;;5074173;28;20029;-57
2023/02/21 10:30:25;;;;;;;8.93;4.25;;;;;;;;;;5069391;28;20374;-58
2023/02/21 10:32:51;;;;;;;8.60;4.70;;;;;;;;;;5067731;28;20039;-57
2023/02/21 10:35:17;;;;;;;6.80;4.30;;;;;;;;;;5069700;28;20485;-59
2023/02/21 10:37:49;;;;;;;8.82;4.43;;;;;;;;;;5069977;28;20083;-58
2023/02/21 10:40:47;;;;;;;9.93;4.47;;;;;;;;;;5070303;28;20555;-58
2023/02/21 10:43:14;;;;;;;7.53;3.92;;;;;;;;;;5066872;28;20482;-58
2023/02/21 10:45:47;;;;;;;5.63;3.33;;;;;;;;;;5070004;28;20478;-58
2023/02/21 10:48:15;;;;;;;6.95;3.88;;;;;;;;;;5065428;28;20043;-58
2023/02/21 10:50:43;;;;;;;7.68;3.63;;;;;;;;;;5069554;28;20051;-58
2023/02/21 10:53:31;;;;;;;7.25;3.20;;;;;;;;;;5069349;28;20104;-58
2023/02/21 10:56:18;;;;;;;6.68;3.17;;;;;;;;;;5070066;28;20046;-57
2023/02/21 10:58:49;;;;;;;5.57;3.30;;;;;;;;;;5065131;28;20035;-58
2023/02/21 11:01:29;;;;;;;4.45;2.80;;;;;;;;;;5069673;28;20024;-58
2023/02/21 11:03:56;;;;;;;6.55;3.45;;;;;;;;;;5063300;28;20028;-58
2023/02/21 11:06:24;;;;;;;7.50;3.20;;;;;;;;;;5069673;28;20028;-53
2023/02/21 11:08:49;;;;;;;5.65;3.10;;;;;;;;;;5068335;28;20092;-57
2023/02/21 11:11:14;;;;;;;5.40;3.55;;;;;;;;;;5069296;28;20103;-57
2023/02/21 11:13:40;;;;;;;7.85;3.40;;;;;;;;;;5069596;28;20103;-58
2023/02/21 11:16:16;;;;;;;6.72;3.00;;;;;;;;;;5069668;28;20104;-58
2023/02/21 11:18:41;;;;;;;8.57;3.13;;;;;;;;;;5069131;28;20024;-58
2023/02/21 11:21:18;;;;;;;6.07;2.80;;;;;;;;;;5078231;28;20024;-58
2023/02/21 11:24:01;;;;;;;4.43;2.60;;;;;;;;;;5061730;28;20107;-58
2023/02/21 11:26:29;;;;;;;5.15;2.22;;;;;;;;;;5067960;28;20021;-58
2023/02/21 11:29:13;;;;;;;12.27;3.00;;;;;;;;;;5068920;28;20089;-58
2023/02/21 11:31:40;;;;;;;2.92;2.30;;;;;;;;;;5074975;28;20439;-58
2023/02/21 11:34:09;;;;;;;5.15;2.60;;;;;;;;;;5066174;28;20033;-58
2023/02/21 11:36:40;;;;;;;3.67;2.50;;;;;;;;;;5067816;28;20056;-58
2023/02/21 11:39:17;;;;;;;4.25;3.05;;;;;;;;;;5069170;28;20025;-58
2023/02/21 11:41:47;;;;;;;4.65;3.08;;;;;;;;;;5069566;28;20103;-58
2023/02/21 11:44:24;;;;;;;;;;;;;;;;;;5065214;28;20103;-57
2023/02/21 11:46:55;;;;;;;4.88;2.47;;;;;;;;;;5068733;28;19908;-58
2023/02/21 11:50:06;;;;;;;4.28;2.70;;;;;;;;;;5068769;28;20024;-58
2023/02/21 11:52:37;;;;;;;3.38;2.30;;;;;;;;;;5064694;28;20410;-58
2023/02/21 11:55:11;;;;;;;4.50;2.35;;;;;;;;;;5064100;28;20024;-58
2023/02/21 11:57:53;;;;;;;4.05;2.10;;;;;;;;;;5068316;28;20017;-58
2023/02/21 12:00:41;;;;;;;3.55;2.00;;;;;;;;;;5066260;28;20036;-58
2023/02/21 12:03:43;;;;;;;2.95;2.20;;;;;;;;;;5065098;28;20032;-58
2023/02/21 12:06:50;;;;;;;5.28;2.92;;;;;;;;;;5071832;28;20601;-58
2023/02/21 12:09:32;;;;;;;3.90;2.33;;;;;;;;;;5024374;28;20044;-58
2023/02/21 12:12:16;;;;;;;3.45;1.90;;;;;;;;;;5073064;28;20029;-58
2023/02/21 12:14:53;;;;;;;4.05;1.85;;;;;;;;;;5068882;28;20089;-58
2023/02/21 12:17:21;;;;;;;2.67;1.60;;;;;;;;;;5068387;28;20097;-57
2023/02/21 12:20:02;;;;;;;4.33;1.87;;;;;;;;;;5067792;28;20382;-58
2023/02/21 12:22:43;;;;;;;3.58;1.73;;;;;;;;;;5070404;28;20028;-58
2023/02/21 12:25:39;;;;;;;3.28;1.92;;;;;;;;;;5072712;28;20030;-58
2023/02/21 12:28:17;;;;;;;3.17;2.00;;;;;;;;;;5068737;28;20028;-58
2023/02/21 12:30:55;;;;;;;4.23;2.03;;;;;;;;;;5064967;28;20024;-58
2023/02/21 12:33:35;;;;;;;3.83;1.70;;;;;;;;;;5071840;28;20036;-57
2023/02/21 12:36:19;;;;;;;4.20;2.17;;;;;;;;;;5071729;28;20019;-57
2023/02/21 12:38:50;;;;;;;1.92;1.40;;;;;;;;;;5071416;28;20032;-58
2023/02/21 12:41:41;;;;;;;3.28;1.55;;;;;;;;;;5067433;28;20120;-58
2023/02/21 12:44:14;;;;;;;3.88;1.80;;;;;;;;;;5072179;28;20032;-57
2023/02/21 12:46:49;;;;;;;4.35;1.30;;;;;;;;;;5070395;28;20111;-58
2023/02/21 12:49:43;;;;;;;6.03;1.70;;;;;;;;;;5073178;28;20506;-58
2023/02/21 12:52:19;;;;;;;5.05;1.40;;;;;;;;;;5067773;28;20090;-58
2023/02/21 12:55:20;;;;;;;2.00;1.25;;;;;;;;;;5075266;28;20103;-58
2023/02/21 12:58:09;;;;;;;3.20;1.35;;;;;;;;;;5001677;28;20026;-57
2023/02/21 13:00:50;;;;;;;2.38;1.40;;;;;;;;;;5068612;28;20526;-58
2023/02/21 13:03:34;;;;;;;2.92;1.33;;;;;;;;;;5071485;28;20061;-58
2023/02/21 13:06:16;;;;;;;3.97;1.65;;;;;;;;;;5074904;28;20427;-58
2023/02/21 13:09:10;;;;;;;7.43;2.40;;;;;;;;;;5070531;28;20074;-58
2023/02/21 13:11:38;;;;;;;6.32;2.42;;;;;;;;;;5072086;28;20043;-58
2023/02/21 13:14:10;;;;;;;1.88;1.38;;;;;;;;;;5072862;28;20035;-58
2023/02/21 13:16:35;;;;;;;2.13;1.67;;;;;;;;;;5076316;28;20219;-58
2023/02/21 13:19:04;;;;;;;4.93;1.75;;;;;;;;;;5071283;28;20025;-58
2023/02/21 13:21:41;;;;;;;4.32;1.50;;;;;;;;;;5071398;28;20081;-58
2023/02/21 13:24:13;;;;;;;6.35;3.30;;;;;;;;;;5072614;28;20032;-57
2023/02/21 13:26:50;;;;;;;4.43;1.50;;;;;;;;;;5070071;28;20020;-58
2023/02/21 13:29:23;;;;;;;4.20;2.13;;;;;;;;;;5071959;28;20025;-58
2023/02/21 13:31:58;;;;;;;3.92;1.60;;;;;;;;;;5076797;28;20032;-58
2023/02/21 13:34:26;;;;;;;2.83;1.20;;;;;;;;;;5070360;28;20024;-57
2023/02/21 13:36:52;;;;;;;4.07;1.55;;;;;;;;;;5070896;28;20161;-58
2023/02/21 13:39:29;;;;;;;5.78;3.63;;;;;;;;;;5071095;28;20060;-58
2023/02/21 13:42:04;;;;;;;5.28;2.58;;;;;;;;;;5071524;28;20107;-58
2023/02/21 13:44:37;;;;;;;3.42;2.10;;;;;;;;;;5071771;28;20032;-57
2023/02/21 13:47:20;;;;;;;4.97;1.90;;;;;;;;;;5070611;28;20016;-58
2023/02/21 13:49:50;;;;;;;5.63;1.40;;;;;;;;;;5065957;28;20036;-57
2023/02/21 13:52:19;;;;;;;3.03;1.33;;;;;;;;;;5064706;28;20409;-58
2023/02/21 13:55:25;;;;;;;6.78;1.40;;;;;;;;;;5063278;28;20029;-57
2023/02/21 13:57:59;;;;;;;4.35;1.60;;;;;;;;;;5008593;28;20022;-58
2023/02/21 14:00:27;;;;;;;3.10;1.50;;;;;;;;;;5067352;28;20047;-57
2023/02/21 14:02:53;;;;;;;4.88;1.83;;;;;;;;;;5068554;28;20043;-57
2023/02/21 14:05:20;;;;;;;3.88;1.73;;;;;;;;;;5070706;28;20027;-57
2023/02/21 14:08:04;;;;;;;3.90;1.73;;;;;;;;;;5069879;28;20131;-58
2023/02/21 14:10:40;;;;;;;6.22;2.33;;;;;;;;;;5070487;28;20478;-58
2023/02/21 14:13:21;;;;;;;9.20;2.63;;;;;;;;;;5070672;28;20052;-57
2023/02/21 14:15:56;;;;;;;7.00;3.13;;;;;;;;;;5069700;28;20485;-56
2023/02/21 14:18:29;;;;;;;3.97;2.45;;;;;;;;;;5069803;28;20029;-57
2023/02/21 14:20:56;;;;;;;12.57;4.00;;;;;;;;;;5070291;28;20025;-57
2023/02/21 14:23:32;;;;;;;17.02;6.88;;;;;;;;;;5069994;28;20099;-58
2023/02/21 14:26:00;;;;;;;11.35;3.40;;;;;;;;;;5067137;28;20046;-57
2023/02/21 14:28:55;;;;;;;7.32;2.58;;;;;;;;;;5067444;28;20089;-58
2023/02/21 14:31:57;;;;;;;16.15;3.30;;;;;;;;;;5014925;28;20076;-57
2023/02/21 14:34:41;;;;;;;9.70;2.38;;;;;;;;;;5046033;28;20086;-58
2023/02/21 14:37:24;;;;;;;10.63;2.83;;;;;;;;;;5069421;28;20079;-57
2023/02/21 14:40:13;;;;;;;3.65;2.20;;;;;;;;;;5068054;28;20146;-57
2023/02/21 14:42:48;;;;;;;5.18;2.00;;;;;;;;;;5050947;28;20047;-58
2023/02/21 14:45:27;;;;;;;6.43;1.98;;;;;;;;;;5068759;28;20021;-56
2023/02/21 14:48:17;;;;;;;4.40;2.13;;;;;;;;;;5065300;28;20555;-57
2023/02/21 14:51:01;;;;;;;7.03;2.10;;;;;;;;;;5064796;28;20024;-57
2023/02/21 14:53:41;;;;;;;3.63;2.00;;;;;;;;;;5067801;28;20066;-57
2023/02/21 14:56:09;;;;;;;5.38;2.60;;;;;;;;;;5065244;28;20021;-58
2023/02/21 14:59:07;;;;;;;4.05;2.00;;;;;;;;;;5068875;28;20025;-57
2023/02/21 15:02:14;;;;;;;7.82;2.00;;;;;;;;;;5068335;28;20067;-57
2023/02/21 15:04:53;;;;;;;4.43;2.00;;;;;;;;;;5069507;28;20031;-57
2023/02/21 15:07:40;;;;;;;7.43;2.60;;;;;;;;;;5065851;28;20446;-58
2023/02/21 15:10:29;;;;;;;4.15;2.30;;;;;;;;;;5064652;28;20039;-57
2023/02/21 15:13:00;;;;;;;5.60;2.40;;;;;;;;;;5071912;28;20051;-57
2023/02/21 15:15:35;;;;;;;4.70;2.00;;;;;;;;;;5071281;28;20091;-57
2023/02/21 15:18:03;;;;;;;6.97;2.17;;;;;;;;;;5068901;28;20027;-57
2023/02/21 15:20:29;;;;;;;4.50;2.80;;;;;;;;;;5068674;28;20111;-58
2023/02/21 15:23:14;;;;;;;7.57;2.92;;;;;;;;;;5069766;28;20043;-58
2023/02/21 15:25:41;;;;;;;4.50;2.45;;;;;;;;;;5069110;28;20104;-58
2023/02/21 15:28:22;;;;;;;3.90;2.60;;;;;;;;;;5068953;28;20033;-57
2023/02/21 15:31:04;;;;;;;4.80;2.75;;;;;;;;;;5063902;28;20078;-57
2023/02/21 15:33:38;;;;;;;6.55;3.53;;;;;;;;;;5067830;28;20502;-58
2023/02/21 15:36:08;;;;;;;5.45;3.55;;;;;;;;;;5069599;28;20037;-58
2023/02/21 15:38:52;;;;;;;;;;;;;;;;;;5069307;28;20028;-58
2023/02/21 15:41:26;;;;;;;6.00;3.40;;;;;;;;;;5065623;28;19908;-58
2023/02/21 15:44:00;;;;;;;7.28;3.50;;;;;;;;;;5069478;28;20078;-57
2023/02/21 15:46:49;;;;;;;5.35;3.60;;;;;;;;;;5065601;28;20016;-57
2023/02/21 15:49:23;;;;;;;7.07;4.18;;;;;;;;;;5065064;28;20048;-57
2023/02/21 15:51:48;;;;;;;16.42;8.95;;;;;;;;;;5069774;28;20021;-57
2023/02/21 15:54:17;;;;;;;31.17;17.00;;;;;;;;;;5071688;28;20078;-58
2023/02/21 15:56:43;;;;;;;18.25;10.88;;;;;;;;;;5070743;28;20028;-58
2023/02/21 15:59:08;;;;;;;15.73;12.25;;;;;;;;;;5072752;28;20169;-57
2023/02/21 16:01:34;;;;;;;10.60;6.93;;;;;;;;;;5072701;28;20032;-57
2023/02/21 16:04:20;;;;;;;13.35;8.88;;;;;;;;;;5072191;28;20040;-58
2023/02/21 16:06:53;;;;;;;12.15;6.00;;;;;;;;;;5069491;28;20043;-58
2023/02/21 16:09:34;;;;;;;9.80;5.93;;;;;;;;;;5072108;28;20074;-58
2023/02/21 16:12:11;;;;;;;11.13;6.78;;;;;;;;;;5072272;28;20082;-57
2023/02/21 16:14:45;;;;;;;14.88;6.25;;;;;;;;;;5070815;28;20106;-58
2023/02/21 16:17:28;;;;;;;13.75;6.22;;;;;;;;;;5067274;28;20035;-59
2023/02/21 16:19:57;;;;;;;7.63;4.25;;;;;;;;;;5067247;28;20115;-58
2023/02/21 16:22:24;;;;;;;18.05;8.68;;;;;;;;;;5071237;28;20115;-55
2023/02/21 16:25:09;;;;;;;37.15;17.23;;;;;;;;;;5071350;28;20029;-58
2023/02/21 16:27:35;;;;;;;42.67;21.98;;;;;;;;;;5068859;28;20036;-58
2023/02/21 16:30:00;;;;;;;34.08;15.13;;;;;;;;;;5071186;28;20362;-58
2023/02/21 16:32:26;;;;;;;22.73;12.55;;;;;;;;;;5067746;28;20171;-58
2023/02/21 16:34:53;;;;;;;15.80;8.32;;;;;;;;;;5067547;28;20070;-58
2023/02/21 16:37:20;;;;;;;9.20;5.30;;;;;;;;;;5066127;28;20024;-58
2023/02/21 16:39:46;;;;;;;8.95;4.45;;;;;;;;;;5070718;28;20113;-58
2023/02/21 16:42:12;;;;;;;6.68;3.75;;;;;;;;;;5062659;28;20057;-59
2023/02/21 16:44:37;;;;;;;9.80;4.63;;;;;;;;;;5065128;28;20561;-60
2023/02/21 16:47:04;;;;;;;13.65;5.70;;;;;;;;;;5067158;28;20028;-59
2023/02/21 16:49:30;;;;;;;10.85;4.95;;;;;;;;;;5069370;28;20030;-58
2023/02/21 16:51:55;;;;;;;8.80;3.95;;;;;;;;;;5069249;28;20396;-59
2023/02/21 16:54:21;;;;;;;10.65;5.50;;;;;;;;;;5069264;28;20032;-59
2023/02/21 16:56:50;;;;;;;11.27;6.47;;;;;;;;;;5068006;28;20039;-59
2023/02/21 16:59:20;;;;;;;11.10;5.78;;;;;;;;;;5068074;28;20020;-59
2023/02/21 17:01:46;;;;;;;8.77;4.60;;;;;;;;;;5068351;28;20044;-59
2023/02/21 17:04:19;;;;;;;6.85;3.92;;;;;;;;;;5070749;28;20024;-59
2023/02/21 17:06:49;;;;;;;14.55;6.00;;;;;;;;;;5065906;28;20481;-59
2023/02/21 17:09:23;;;;;;;13.80;8.18;;;;;;;;;;5066732;28;20032;-59
2023/02/21 17:11:48;;;;;;;12.45;7.90;;;;;;;;;;5068250;28;20074;-59
2023/02/21 17:14:14;;;;;;;11.88;8.32;;;;;;;;;;5070759;28;20021;-59
2023/02/21 17:16:43;;;;;;;14.50;8.93;;;;;;;;;;5067913;28;20829;-59
2023/02/21 17:19:11;;;;;;;21.00;11.40;;;;;;;;;;5069783;28;20082;-58
2023/02/21 17:21:37;;;;;;;22.70;13.80;;;;;;;;;;5067995;28;20047;-58
2023/02/21 17:24:02;;;;;;;21.67;13.32;;;;;;;;;;5068581;28;20407;-58